Time;durP1;ratioP1;P1;durP2;ratioP2;P2;SDS_P1;SDS_P2;PMS_P1;PMS_P2;Temp;Humidity;BMP_temperature;BMP_pressure;BME280_temperature;BME280_humidity;BME280_pressure;Samples;Min_cycle;Max_cycle;Signal;HPM_P1;HPM_P2
2023/01/27 00:00:52;;;;;;;23.08;13.30;;;;;;;0.55;100.00;101423.97;5049726;28;20057;-60
2023/01/27 00:03:20;;;;;;;22.38;12.75;;;;;;;0.52;100.00;101431.75;5052568;28;20121;-59
2023/01/27 00:05:48;;;;;;;20.42;11.60;;;;;;;0.46;100.00;101431.78;5045581;28;20087;-60
2023/01/27 00:08:16;;;;;;;24.88;13.77;;;;;;;0.45;100.00;101425.75;5052295;28;20665;-61
2023/01/27 00:10:43;;;;;;;22.77;13.15;;;;;;;0.42;100.00;101430.06;5048351;28;20049;-60
2023/01/27 00:13:27;;;;;;;24.67;12.02;;;;;;;0.44;100.00;101425.72;5048024;28;20073;-59
2023/01/27 00:15:54;;;;;;;22.17;12.25;;;;;;;0.42;100.00;101438.69;5046041;28;20048;-60
2023/01/27 00:18:22;;;;;;;24.77;12.65;;;;;;;0.45;100.00;101435.22;5043579;28;20595;-61
2023/01/27 00:26:22;;;;;;;21.30;12.95;;;;;;;0.50;100.00;101424.00;5047718;28;20638;-60
2023/01/27 00:28:49;;;;;;;25.73;11.95;;;;;;;0.52;100.00;101421.38;5046594;28;20394;-60
2023/01/27 00:34:07;;;;;;;;;;;;;;;0.56;100.00;101422.22;5041388;28;20136;-60
2023/01/27 00:36:37;;;;;;;24.88;13.27;;;;;;;0.55;100.00;101417.94;5044274;28;20007;-60
2023/01/27 00:39:05;;;;;;;23.92;11.95;;;;;;;0.49;100.00;101422.25;5044773;28;20140;-60
2023/01/27 00:41:33;;;;;;;22.30;12.07;;;;;;;0.48;100.00;101430.03;5042257;28;20067;-63
2023/01/27 00:44:00;;;;;;;23.05;12.88;;;;;;;0.45;100.00;101433.50;5045471;28;20132;-60
2023/01/27 00:46:28;;;;;;;24.48;12.63;;;;;;;0.50;100.00;101429.16;5043458;28;20049;-59
2023/01/27 00:48:55;;;;;;;24.80;12.07;;;;;;;0.59;100.00;101430.84;5050813;28;20104;-60
2023/01/27 00:51:23;;;;;;;20.83;11.32;;;;;;;0.63;100.00;101432.56;5045617;28;20130;-59
2023/01/27 00:53:50;;;;;;;23.27;11.95;;;;;;;0.68;100.00;101429.94;5046692;28;20136;-61
2023/01/27 00:56:18;;;;;;;27.38;13.18;;;;;;;0.60;100.00;101436.91;5049996;28;20143;-61
2023/01/27 00:58:45;;;;;;;24.60;12.90;;;;;;;0.57;100.00;101439.50;5040128;28;20134;-61
2023/01/27 01:01:14;;;;;;;24.70;13.60;;;;;;;0.63;100.00;101440.34;5047573;28;20140;-60
2023/01/27 01:03:42;;;;;;;28.83;13.25;;;;;;;0.66;100.00;101437.72;5049546;28;20057;-60
2023/01/27 01:06:11;;;;;;;29.33;13.32;;;;;;;0.69;100.00;101442.88;5046149;28;20812;-62
2023/01/27 01:08:39;;;;;;;30.40;14.98;;;;;;;0.59;100.00;101449.00;5052392;28;20051;-58
2023/01/27 01:11:07;;;;;;;26.77;14.43;;;;;;;0.59;100.00;101448.13;5050582;28;20572;-58
2023/01/27 01:13:35;;;;;;;27.83;14.15;;;;;;;0.57;100.00;101460.22;5041777;28;21261;-60
2023/01/27 01:16:15;;;;;;;27.40;14.07;;;;;;;0.58;100.00;101449.84;5038471;28;20060;-60
2023/01/27 01:18:43;;;;;;;27.10;14.20;;;;;;;0.59;100.00;101448.13;5052338;28;20076;-58
2023/01/27 01:21:11;;;;;;;30.30;14.40;;;;;;;0.55;100.00;101452.47;5050557;28;20551;-61
2023/01/27 01:23:40;;;;;;;26.60;13.88;;;;;;;0.49;100.00;101450.75;5046320;28;20049;-60
2023/01/27 01:26:09;;;;;;;26.90;13.73;;;;;;;0.50;100.00;101449.91;5048371;28;20140;-59
2023/01/27 01:28:36;;;;;;;33.13;13.77;;;;;;;0.53;100.00;101459.38;5049364;28;20149;-61
2023/01/27 01:31:10;;;;;;;28.52;14.50;;;;;;;0.47;100.00;101452.50;5043989;28;20044;-60
2023/01/27 01:33:37;;;;;;;25.75;13.48;;;;;;;0.54;100.00;101461.13;5040671;28;20045;-61
2023/01/27 01:36:12;;;;;;;29.38;14.50;;;;;;;0.55;100.00;101456.78;5048341;28;20139;-60
2023/01/27 01:38:40;;;;;;;30.83;14.02;;;;;;;0.47;100.00;101462.00;5048556;28;20577;-66
2023/01/27 01:41:11;;;;;;;26.73;14.63;;;;;;;0.49;100.00;101458.50;5044977;28;20499;-60
2023/01/27 01:43:38;;;;;;;28.70;14.27;;;;;;;0.48;100.00;101445.56;5044117;28;20718;-59
2023/01/27 01:46:08;;;;;;;31.80;15.23;;;;;;;0.45;100.00;101456.81;5045676;28;20049;-60
2023/01/27 01:48:46;;;;;;;27.35;14.35;;;;;;;0.54;100.00;101457.63;5046248;28;20167;-59
2023/01/27 01:51:39;;;;;;;28.48;13.95;;;;;;;0.61;100.00;101462.78;5042400;28;20090;-61
2023/01/27 01:54:09;;;;;;;22.92;13.18;;;;;;;0.64;100.00;101461.94;5022435;28;20049;-59
2023/01/27 01:57:26;;;;;;;20.65;11.70;;;;;;;0.62;100.00;101458.47;5041743;28;20140;-59
2023/01/27 02:00:03;;;;;;;23.10;13.23;;;;;;;0.63;100.00;101468.84;5042986;28;20160;-60
2023/01/27 02:02:30;;;;;;;27.92;14.25;;;;;;;0.60;100.00;101462.81;5040213;28;20055;-61
2023/01/27 02:05:05;;;;;;;23.33;13.65;;;;;;;0.62;100.00;101464.50;5044627;28;20103;-61
2023/01/27 02:07:42;;;;;;;24.08;12.88;;;;;;;0.56;100.00;101464.53;5057532;28;20056;-61
2023/01/27 02:10:10;;;;;;;20.42;11.65;;;;;;;0.60;100.00;101468.00;5045651;28;20100;-62
2023/01/27 02:12:38;;;;;;;19.88;11.68;;;;;;;0.67;100.00;101456.72;5052061;28;20073;-61
2023/01/27 02:15:06;;;;;;;21.33;11.63;;;;;;;0.70;100.00;101459.28;5042047;28;20522;-63
2023/01/27 02:17:34;;;;;;;22.33;12.68;;;;;;;0.72;100.00;101461.03;5037762;28;20041;-59
2023/01/27 02:20:01;;;;;;;22.30;12.40;;;;;;;0.76;100.00;101457.53;5042782;28;20057;-60
2023/01/27 02:23:03;;;;;;;20.83;12.15;;;;;;;0.78;100.00;101457.53;5044845;28;20243;-61
2023/01/27 02:25:33;;;;;;;20.50;12.35;;;;;;;0.80;100.00;101458.38;5058616;28;20148;-59
2023/01/27 02:28:02;;;;;;;20.05;11.80;;;;;;;0.80;100.00;101460.97;5046541;28;20681;-61
2023/01/27 02:30:29;;;;;;;21.58;12.32;;;;;;;0.79;100.00;101460.97;5039565;28;20589;-60
2023/01/27 02:32:57;;;;;;;18.10;11.57;;;;;;;0.71;100.00;101453.25;5046298;28;20101;-60
2023/01/27 02:35:39;;;;;;;20.75;11.43;;;;;;;0.66;100.00;101457.59;5050673;28;20683;-61
2023/01/27 02:38:08;;;;;;;17.92;11.05;;;;;;;0.66;100.00;101453.25;5044357;28;20140;-58
2023/01/27 02:40:35;;;;;;;17.73;10.90;;;;;;;0.71;100.00;101450.66;5041817;28;20140;-58
2023/01/27 02:43:03;;;;;;;19.10;11.52;;;;;;;0.71;100.00;101458.41;5046740;28;20081;-59
2023/01/27 02:45:31;;;;;;;21.05;11.13;;;;;;;0.71;100.00;101464.47;5042869;28;21671;-59
2023/01/27 02:47:58;;;;;;;17.80;10.25;;;;;;;0.78;100.00;101464.44;5046995;28;20461;-60
2023/01/27 02:50:25;;;;;;;18.23;11.05;;;;;;;0.79;100.00;101461.84;5033929;28;20084;-60
2023/01/27 02:52:52;;;;;;;17.95;10.68;;;;;;;0.81;100.00;101467.00;5043735;28;20055;-61
2023/01/27 02:55:20;;;;;;;17.08;10.35;;;;;;;0.85;100.00;101468.72;5034920;28;20057;-60
2023/01/27 02:57:47;;;;;;;15.65;10.10;;;;;;;0.88;100.00;101473.88;5044104;28;20537;-60
2023/01/27 03:00:14;;;;;;;19.05;11.77;;;;;;;0.90;100.00;101480.81;5046475;28;20053;-61
2023/01/27 03:02:41;;;;;;;19.45;11.32;;;;;;;0.84;100.00;101480.81;5040621;28;20041;-60
2023/01/27 03:05:08;;;;;;;21.52;12.40;;;;;;;0.73;100.00;101480.88;5044537;28;20056;-60
2023/01/27 03:07:35;;;;;;;21.27;12.60;;;;;;;0.68;100.00;101487.81;5031872;28;20568;-60
2023/01/27 03:10:03;;;;;;;19.38;11.88;;;;;;;0.73;100.00;101487.81;5045906;28;20979;-60
2023/01/27 03:12:30;;;;;;;22.08;13.45;;;;;;;0.80;100.00;101483.44;5043520;28;20539;-61
2023/01/27 03:20:29;;;;;;;22.45;12.85;;;;;;;0.80;100.00;101471.34;5043657;28;20063;-57
2023/01/27 03:22:56;;;;;;;22.50;12.90;;;;;;;0.81;100.00;101477.38;5043365;28;20152;-60
2023/01/27 03:25:23;;;;;;;20.17;12.13;;;;;;;0.84;100.00;101477.38;5033618;28;20067;-59
2023/01/27 03:27:50;;;;;;;21.50;12.18;;;;;;;0.76;100.00;101473.06;5043085;28;20428;-59
2023/01/27 03:30:18;;;;;;;18.85;11.25;;;;;;;0.79;100.00;101479.13;5045641;28;20056;-59
2023/01/27 03:32:53;;;;;;;20.13;11.73;;;;;;;0.80;100.00;101475.66;5046352;28;20141;-60
2023/01/27 03:35:22;;;;;;;17.93;11.90;;;;;;;0.84;100.00;101480.81;5047478;28;20099;-60
2023/01/27 03:46:17;;;;;;;20.90;12.57;;;;;;;0.87;100.00;101485.13;5047582;28;20614;-61
2023/01/27 03:48:52;;;;;;;21.00;12.27;;;;;;;0.88;100.00;101485.13;5046579;28;20056;-59
2023/01/27 03:51:22;;;;;;;20.05;12.93;;;;;;;0.87;100.00;101485.13;5040997;28;20075;-59
2023/01/27 03:53:50;;;;;;;21.73;12.65;;;;;;;0.87;100.00;101483.41;5043387;28;20164;-58
2023/01/27 03:56:18;;;;;;;22.30;13.45;;;;;;;0.85;100.00;101479.94;5041778;28;20132;-60
2023/01/27 03:58:47;;;;;;;21.85;13.18;;;;;;;0.84;100.00;101485.13;5042954;28;20691;-59
2023/01/27 04:01:19;;;;;;;22.70;12.77;;;;;;;0.82;100.00;101485.16;5029944;28;20064;-61
2023/01/27 04:06:57;;;;;;;21.67;11.95;;;;;;;0.89;100.00;101475.59;5045537;28;20136;-60
2023/01/27 04:09:30;;;;;;;19.08;11.88;;;;;;;0.94;100.00;101477.28;5043687;28;20056;-59
2023/01/27 04:11:59;;;;;;;20.70;11.77;;;;;;;0.93;100.00;101478.16;5044574;28;20060;-60
2023/01/27 04:14:36;;;;;;;21.38;11.75;;;;;;;0.92;100.00;101484.22;5043124;28;20059;-57
2023/01/27 04:17:11;;;;;;;17.58;10.35;;;;;;;0.94;100.00;101481.63;5037801;28;20053;-59
2023/01/27 04:19:39;;;;;;;17.20;10.63;;;;;;;0.95;100.00;101489.41;5037447;28;20056;-59
2023/01/27 04:22:07;;;;;;;19.08;10.57;;;;;;;0.97;100.00;101482.47;5046013;28;20056;-60
2023/01/27 04:24:34;;;;;;;17.10;10.45;;;;;;;0.96;100.00;101478.16;5044621;28;20700;-58
2023/01/27 04:27:06;;;;;;;14.25;9.27;;;;;;;1.00;100.00;101486.78;5038900;28;20045;-61
2023/01/27 04:29:35;;;;;;;18.13;9.73;;;;;;;0.98;100.00;101489.38;5044567;28;20420;-60
2023/01/27 04:32:07;;;;;;;16.33;9.02;;;;;;;1.02;100.00;101492.81;5043371;28;20049;-61
2023/01/27 04:34:36;;;;;;;15.95;8.82;;;;;;;1.02;100.00;101498.00;5036889;28;20549;-61
2023/01/27 04:37:04;;;;;;;13.70;8.40;;;;;;;1.00;100.00;101494.56;5039168;28;20052;-60
2023/01/27 04:39:32;;;;;;;13.60;8.90;;;;;;;1.03;100.00;101489.34;5042155;28;20148;-61
2023/01/27 04:41:59;;;;;;;15.70;9.07;;;;;;;1.02;100.00;101487.63;5046319;28;20057;-61
2023/01/27 04:44:27;;;;;;;15.65;8.93;;;;;;;0.99;100.00;101492.81;5046662;28;20593;-59
2023/01/27 04:46:54;;;;;;;15.63;8.63;;;;;;;0.97;100.00;101497.16;5041759;28;20057;-60
2023/01/27 04:49:21;;;;;;;14.15;8.63;;;;;;;0.99;100.00;101495.41;5041649;28;20256;-60
2023/01/27 04:51:48;;;;;;;14.35;7.88;;;;;;;1.05;100.00;101499.72;5036351;28;20053;-61
2023/01/27 04:54:15;;;;;;;15.00;9.20;;;;;;;1.01;100.00;101496.28;5035962;28;20262;-64
2023/01/27 04:59:52;;;;;;;12.90;7.97;;;;;;;1.00;100.00;101487.66;5042379;28;20048;-60
2023/01/27 05:02:19;;;;;;;16.92;8.52;;;;;;;1.01;100.00;101498.88;5045513;28;20055;-60
2023/01/27 05:04:46;;;;;;;17.08;9.38;;;;;;;0.98;100.00;101498.88;5046733;28;20144;-59
2023/01/27 05:07:13;;;;;;;17.45;9.15;;;;;;;0.99;100.00;101511.88;5044181;28;20147;-60
2023/01/27 05:09:40;;;;;;;16.08;8.45;;;;;;;1.02;100.00;101506.63;5042071;28;20136;-60
2023/01/27 05:12:08;;;;;;;13.85;8.40;;;;;;;1.05;100.00;101515.28;5039978;28;20596;-60
2023/01/27 05:14:35;;;;;;;13.30;7.45;;;;;;;1.08;100.00;101515.25;5047017;28;20074;-59
2023/01/27 05:17:02;;;;;;;14.40;7.78;;;;;;;1.13;100.00;101511.78;5041502;28;20044;-58
2023/01/27 05:19:29;;;;;;;12.75;6.95;;;;;;;1.13;100.00;101523.91;5043352;28;20063;-60
2023/01/27 05:21:57;;;;;;;13.00;8.00;;;;;;;1.13;100.00;101516.13;5047127;28;20539;-64
2023/01/27 05:24:24;;;;;;;15.77;8.75;;;;;;;1.14;100.00;101528.19;5033926;28;20057;-58
2023/01/27 05:26:52;;;;;;;13.52;7.43;;;;;;;1.13;100.00;101527.34;5039112;28;20056;-61
2023/01/27 05:29:20;;;;;;;11.10;7.07;;;;;;;1.10;100.00;101535.13;5038169;28;20071;-59
2023/01/27 05:31:47;;;;;;;15.15;8.40;;;;;;;1.12;100.00;101538.56;5041901;28;20059;-60
2023/01/27 05:34:15;;;;;;;14.73;8.00;;;;;;;1.10;100.00;101531.69;5034764;28;20053;-61
2023/01/27 05:36:42;;;;;;;14.13;7.78;;;;;;;1.13;100.00;101534.25;5037533;28;20059;-60
2023/01/27 05:39:10;;;;;;;13.85;7.88;;;;;;;1.13;100.00;101540.31;5039834;28;20136;-60
2023/01/27 05:41:37;;;;;;;15.23;8.52;;;;;;;1.15;100.00;101535.09;5036182;28;20225;-59
2023/01/27 05:44:05;;;;;;;13.90;8.15;;;;;;;1.13;100.00;101535.13;5050114;28;20163;-60
2023/01/27 05:46:32;;;;;;;13.55;7.45;;;;;;;1.15;100.00;101541.16;5044188;28;20061;-60
2023/01/27 05:49:02;;;;;;;12.93;7.40;;;;;;;1.13;100.00;101542.91;5042808;28;20584;-58
2023/01/27 05:51:33;;;;;;;13.07;7.68;;;;;;;1.14;100.00;101539.44;5037747;28;20053;-61
2023/01/27 05:54:00;;;;;;;14.25;7.72;;;;;;;1.16;100.00;101540.28;5044394;28;20064;-59
2023/01/27 05:56:28;;;;;;;16.48;8.02;;;;;;;1.10;100.00;101542.91;5041417;28;20049;-60
2023/01/27 05:58:56;;;;;;;15.98;8.07;;;;;;;1.06;100.00;101543.78;5035315;28;20059;-61
2023/01/27 06:01:28;;;;;;;15.77;7.78;;;;;;;1.08;100.00;101548.97;5043125;28;20060;-62
2023/01/27 06:03:56;;;;;;;17.75;8.52;;;;;;;1.10;100.00;101547.25;5044695;28;20140;-61
2023/01/27 06:06:25;;;;;;;15.40;8.27;;;;;;;1.12;100.00;101548.94;5047261;28;20139;-60
2023/01/27 06:08:52;;;;;;;14.45;8.43;;;;;;;1.12;100.00;101542.88;5046757;28;20485;-61
2023/01/27 06:11:20;;;;;;;18.00;9.27;;;;;;;1.14;100.00;101551.53;5040663;28;20064;-63
2023/01/27 06:13:47;;;;;;;15.95;8.18;;;;;;;1.11;100.00;101547.22;5038917;28;20491;-61
2023/01/27 06:16:16;;;;;;;17.40;8.43;;;;;;;1.12;100.00;101535.97;5048134;28;20053;-59
2023/01/27 06:18:45;;;;;;;15.13;7.65;;;;;;;1.14;100.00;101534.25;5037400;28;20061;-60
2023/01/27 06:21:14;;;;;;;15.70;7.90;;;;;;;1.15;100.00;101540.28;5046810;28;20049;-56
2023/01/27 06:23:41;;;;;;;14.85;8.35;;;;;;;1.17;100.00;101541.13;5043762;28;20073;-58
2023/01/27 06:26:11;;;;;;;14.95;7.78;;;;;;;1.21;100.00;101540.25;5044587;28;20059;-59
2023/01/27 06:28:38;;;;;;;12.60;6.57;;;;;;;1.20;100.00;101543.72;5046731;28;20041;-61
2023/01/27 06:31:07;;;;;;;14.93;7.55;;;;;;;1.20;100.00;101546.31;5043413;28;20084;-55
2023/01/27 06:33:35;;;;;;;10.57;6.43;;;;;;;1.25;100.00;101545.41;5042652;28;20096;-58
2023/01/27 06:36:10;;;;;;;11.27;6.28;;;;;;;1.24;100.00;101540.25;5046524;28;20453;-60
2023/01/27 06:38:38;;;;;;;13.82;7.78;;;;;;;1.22;100.00;101547.19;5046816;28;20060;-60
2023/01/27 06:41:06;;;;;;;16.13;7.95;;;;;;;1.24;100.00;101556.66;5043891;28;20045;-59
2023/01/27 06:43:33;;;;;;;14.73;7.55;;;;;;;1.29;100.00;101553.19;5046763;28;20055;-61
2023/01/27 06:46:00;;;;;;;13.77;6.63;;;;;;;1.33;100.00;101557.47;5040065;28;20053;-60
2023/01/27 06:48:31;;;;;;;11.35;6.30;;;;;;;1.33;100.00;101560.94;5042469;28;20037;-61
2023/01/27 06:50:58;;;;;;;12.23;6.75;;;;;;;1.33;100.00;101557.47;5037681;28;20049;-60
2023/01/27 06:53:26;;;;;;;15.57;7.43;;;;;;;1.31;100.00;101560.09;5041517;28;20127;-59
2023/01/27 06:55:58;;;;;;;13.23;6.97;;;;;;;1.34;100.00;101557.47;5033678;28;20060;-60
2023/01/27 06:58:25;;;;;;;14.30;7.25;;;;;;;1.33;100.00;101563.53;5044072;28;20059;-60
2023/01/27 07:00:52;;;;;;;14.10;7.25;;;;;;;1.37;100.00;101557.47;5041734;28;20064;-60
2023/01/27 07:03:20;;;;;;;15.18;7.95;;;;;;;1.37;100.00;101573.03;5042866;28;20052;-57
2023/01/27 07:05:47;;;;;;;16.65;7.63;;;;;;;1.34;100.00;101565.25;5045018;28;20055;-60
2023/01/27 07:08:14;;;;;;;12.60;7.22;;;;;;;1.36;100.00;101567.84;5048818;28;20049;-58
2023/01/27 07:10:41;;;;;;;15.23;8.68;;;;;;;1.37;100.00;101573.03;5041364;28;20080;-59
2023/01/27 07:13:11;;;;;;;17.10;9.05;;;;;;;1.33;100.00;101578.25;5045613;28;20154;-58
2023/01/27 07:15:38;;;;;;;14.88;7.82;;;;;;;1.29;100.00;101579.13;5046572;28;20058;-60
2023/01/27 07:18:06;;;;;;;14.57;8.65;;;;;;;1.27;100.00;101571.34;5044975;28;20683;-58
2023/01/27 07:20:33;;;;;;;24.33;9.57;;;;;;;1.32;100.00;101582.56;5048778;28;20049;-59
2023/01/27 07:23:03;;;;;;;17.17;8.77;;;;;;;1.35;100.00;101579.06;5045778;28;20061;-59
2023/01/27 07:25:31;;;;;;;18.50;9.90;;;;;;;1.36;100.00;101579.09;5043556;28;20472;-59
2023/01/27 07:28:00;;;;;;;17.45;9.30;;;;;;;1.36;100.00;101586.00;5045539;28;20842;-59
2023/01/27 07:30:27;;;;;;;18.38;10.02;;;;;;;1.35;100.00;101587.75;5048248;28;20057;-60
2023/01/27 07:32:55;;;;;;;14.75;8.60;;;;;;;1.40;100.00;101587.72;5048763;28;20053;-59
2023/01/27 07:35:22;;;;;;;17.55;9.82;;;;;;;1.45;100.00;101594.59;5045817;28;20067;-58
2023/01/27 07:37:49;;;;;;;17.13;10.02;;;;;;;1.44;100.00;101592.88;5047909;28;20395;-56
2023/01/27 07:40:17;;;;;;;17.30;9.68;;;;;;;1.42;100.00;101599.78;5047060;28;20045;-58
2023/01/27 07:42:44;;;;;;;19.13;10.40;;;;;;;1.45;100.00;101598.94;5045340;28;20513;-57
2023/01/27 07:45:11;;;;;;;20.02;9.43;;;;;;;1.52;100.00;101590.22;5046045;28;20140;-58
2023/01/27 07:47:38;;;;;;;19.42;9.10;;;;;;;1.55;100.00;101595.41;5042313;28;20057;-60
2023/01/27 07:50:06;;;;;;;19.20;10.13;;;;;;;1.57;100.00;101601.44;5045737;28;20135;-60
2023/01/27 07:52:33;;;;;;;22.95;10.07;;;;;;;1.55;100.00;101599.72;5046795;28;20066;-59
2023/01/27 07:55:01;;;;;;;21.83;10.13;;;;;;;1.59;100.00;101598.84;5043115;28;20155;-60
2023/01/27 07:57:28;;;;;;;17.92;8.98;;;;;;;1.61;100.00;101604.88;5043840;28;20143;-61
2023/01/27 07:59:55;;;;;;;22.13;10.88;;;;;;;1.65;100.00;101597.06;5045025;28;20061;-60
2023/01/27 08:02:23;;;;;;;21.35;10.93;;;;;;;1.68;100.00;101598.78;5043312;28;20140;-57
2023/01/27 08:04:50;;;;;;;18.70;9.80;;;;;;;1.70;100.00;101602.22;5049470;28;20053;-59
2023/01/27 08:07:20;;;;;;;23.25;10.38;;;;;;;1.74;100.00;101596.13;5044769;28;20053;-60
2023/01/27 08:09:47;;;;;;;18.25;9.75;;;;;;;1.78;100.00;101605.63;5043074;28;20053;-62
2023/01/27 08:12:14;;;;;;;13.90;8.27;;;;;;;1.85;100.00;101603.88;5048839;28;20150;-60
2023/01/27 08:14:42;;;;;;;14.15;8.05;;;;;;;1.92;100.00;101606.38;5087325;22;20052;-56
2023/01/27 08:17:10;;;;;;;18.80;8.77;;;;;;;1.98;100.00;101608.06;5083904;28;20052;-59
2023/01/27 08:19:37;;;;;;;12.77;8.10;;;;;;;2.02;100.00;101609.78;5086654;28;20056;-58
2023/01/27 08:22:04;;;;;;;13.13;8.10;;;;;;;2.06;100.00;101603.69;5085421;28;20473;-59
2023/01/27 08:24:31;;;;;;;16.75;9.05;;;;;;;2.09;100.00;101608.84;5078674;28;20053;-59
2023/01/27 08:26:58;;;;;;;14.88;8.40;;;;;;;2.13;100.00;101610.56;5071583;28;20143;-60
2023/01/27 08:29:27;;;;;;;15.30;8.18;;;;;;;2.14;100.00;101607.06;5056496;28;20060;-57
2023/01/27 08:31:54;;;;;;;13.88;6.97;;;;;;;2.20;100.00;101621.75;5062238;28;20061;-58
2023/01/27 08:34:22;;;;;;;11.35;7.28;;;;;;;2.25;100.00;101620.84;5062869;28;20056;-60
2023/01/27 08:36:49;;;;;;;12.07;7.50;;;;;;;2.29;100.00;101624.25;5065444;28;20060;-58
2023/01/27 08:39:16;;;;;;;11.55;7.47;;;;;;;2.32;100.00;101618.19;5073373;28;20139;-60
2023/01/27 08:41:43;;;;;;;10.38;6.82;;;;;;;2.36;100.00;101623.34;5067235;28;20060;-59
2023/01/27 08:44:10;;;;;;;13.20;7.72;;;;;;;2.39;100.00;101627.66;5075048;28;20083;-59
2023/01/27 08:46:37;;;;;;;12.65;7.80;;;;;;;2.38;100.00;101634.56;5069231;28;20135;-57
2023/01/27 08:49:05;;;;;;;11.02;7.00;;;;;;;2.36;100.00;101619.88;5062975;28;20143;-57
2023/01/27 08:51:32;;;;;;;9.27;6.70;;;;;;;2.39;100.00;101632.88;5066675;28;20045;-59
2023/01/27 08:53:59;;;;;;;10.85;7.95;;;;;;;2.44;100.00;101637.13;5071571;28;20044;-59
2023/01/27 08:56:26;;;;;;;11.70;7.65;;;;;;;2.44;100.00;101636.28;5064203;28;20294;-60
2023/01/27 08:58:55;;;;;;;12.45;7.85;;;;;;;2.47;100.00;101637.09;5072901;28;20097;-60
2023/01/27 09:01:23;;;;;;;13.32;7.28;;;;;;;2.54;100.00;101643.09;5062502;28;20098;-58
2023/01/27 09:03:51;;;;;;;9.82;7.25;;;;;;;2.54;100.00;101638.75;5065642;28;20051;-54
2023/01/27 09:06:18;;;;;;;10.13;6.30;;;;;;;2.56;100.00;101636.13;5073213;28;20070;-57
2023/01/27 09:09:07;;;;;;;12.55;6.10;;;;;;;2.60;100.00;101644.78;5068292;28;20066;-59
2023/01/27 09:11:41;;;;;;;13.07;6.75;;;;;;;2.66;100.00;101642.13;5067354;28;20062;-55
2023/01/27 09:14:09;;;;;;;9.60;6.50;;;;;;;2.70;100.00;101643.81;5068508;28;20114;-60
2023/01/27 09:16:36;;;;;;;9.57;6.55;;;;;;;2.70;100.00;101643.81;5061525;28;20155;-64
2023/01/27 09:19:04;;;;;;;8.95;6.00;;;;;;;2.73;100.00;101647.25;5060497;28;20052;-58
2023/01/27 09:21:31;;;;;;;10.05;5.88;;;;;;;2.82;100.00;101658.44;5068058;28;20068;-59
2023/01/27 09:23:58;;;;;;;9.18;5.57;;;;;;;2.86;100.00;101660.97;5070720;28;20044;-60
2023/01/27 09:26:25;;;;;;;7.57;5.45;;;;;;;2.88;100.00;101659.25;5063968;28;20400;-59
2023/01/27 09:28:53;;;;;;;7.35;5.18;;;;;;;2.91;100.00;101673.94;5071963;28;20100;-56
2023/01/27 09:31:20;;;;;;;9.95;5.47;;;;;;;2.91;100.00;101666.13;5066143;28;20654;-57
2023/01/27 09:33:47;;;;;;;7.25;4.93;;;;;;;2.94;100.00;101674.78;5064177;28;20060;-57
2023/01/27 09:36:18;;;;;;;9.82;5.80;;;;;;;2.94;100.00;101669.56;5061702;28;20060;-60
2023/01/27 09:38:51;;;;;;;12.98;5.50;;;;;;;2.95;100.00;101670.44;5087181;28;20068;-60
2023/01/27 09:41:26;;;;;;;6.70;5.35;;;;;;;2.92;100.00;101671.31;5062459;28;20056;-57
2023/01/27 09:44:17;;;;;;;7.80;5.22;;;;;;;2.95;100.00;101671.28;5074190;28;20044;-61
2023/01/27 09:47:12;;;;;;;7.47;4.93;;;;;;;3.00;100.00;101686.84;5072712;28;20496;-59
2023/01/27 09:49:39;;;;;;;9.50;5.47;;;;;;;3.01;100.00;101672.94;5065210;28;20067;-58
2023/01/27 09:52:45;;;;;;;9.00;5.30;;;;;;;3.03;100.00;101679.88;5074720;28;20051;-62
2023/01/27 09:55:14;;;;;;;;;;;;;;;3.08;100.00;101674.63;5027963;28;20192;-59
2023/01/27 09:58:02;;;;;;;6.80;4.05;;;;;;;3.14;100.00;101677.13;5068776;28;19969;-61
2023/01/27 10:00:56;;;;;;;6.18;4.47;;;;;;;3.14;100.00;101678.88;5066160;28;20048;-61
2023/01/27 10:03:29;;;;;;;6.75;4.72;;;;;;;3.15;100.00;101680.59;5060735;28;20055;-61
2023/01/27 10:06:34;;;;;;;6.38;5.22;;;;;;;3.15;100.00;101684.09;5062441;28;20080;-62
2023/01/27 10:09:19;;;;;;;8.13;4.95;;;;;;;3.19;100.00;101684.88;5079746;28;20085;-61
2023/01/27 10:11:58;;;;;;;7.60;4.90;;;;;;;3.19;100.00;101687.50;5065443;28;20087;-62
2023/01/27 10:14:55;;;;;;;6.15;4.78;;;;;;;3.24;100.00;101683.97;5071797;28;20040;-59
2023/01/27 10:17:40;;;;;;;8.20;5.43;;;;;;;3.23;100.00;101674.44;5064229;28;20052;-63
2023/01/27 10:20:27;;;;;;;5.93;5.22;;;;;;;3.21;100.00;101693.56;5064516;28;20127;-62
2023/01/27 10:23:12;;;;;;;5.15;4.65;;;;;;;3.24;100.00;101686.59;5062799;28;20049;-60
2023/01/27 10:26:07;;;;;;;8.07;4.72;;;;;;;3.28;100.00;101687.38;5082565;28;20055;-61
2023/01/27 10:28:35;;;;;;;4.93;4.07;;;;;;;3.26;100.00;101691.75;5064971;28;20063;-59
2023/01/27 10:31:19;;;;;;;7.03;4.13;;;;;;;3.24;100.00;101686.59;5069264;28;20052;-59
2023/01/27 10:33:51;;;;;;;8.00;3.92;;;;;;;3.26;100.00;101694.38;5064544;28;20056;-60
2023/01/27 10:37:06;;;;;;;7.53;4.88;;;;;;;3.27;100.00;101690.88;5070760;28;20047;-59
2023/01/27 10:39:59;;;;;;;6.40;4.22;;;;;;;3.29;100.00;101696.94;5056028;28;20056;-60
2023/01/27 10:42:35;;;;;;;4.55;3.58;;;;;;;3.33;100.00;101688.19;5064413;28;20051;-58
2023/01/27 10:45:07;;;;;;;10.98;3.33;;;;;;;3.34;100.00;101689.06;5057454;28;20596;-58
2023/01/27 10:47:44;;;;;;;6.68;3.40;;;;;;;3.40;100.00;101689.00;5052172;28;20136;-60
2023/01/27 10:50:15;;;;;;;5.72;3.65;;;;;;;3.44;100.00;101693.28;5054225;28;20055;-56
2023/01/27 10:52:54;;;;;;;5.93;3.65;;;;;;;3.42;100.00;101692.44;5064497;28;20055;-57
2023/01/27 10:55:24;;;;;;;8.25;3.75;;;;;;;3.43;100.00;101692.44;5077976;28;20057;-62
2023/01/27 10:57:59;;;;;;;12.77;4.55;;;;;;;3.50;100.00;101693.19;5080546;28;20140;-60
2023/01/27 11:00:33;;;;;;;10.70;4.15;;;;;;;3.52;100.00;101694.91;5061357;28;20053;-62
2023/01/27 11:03:34;;;;;;;9.63;3.40;;;;;;;3.53;100.00;101696.63;5052089;28;20052;-59
2023/01/27 11:06:06;;;;;;;6.18;3.75;;;;;;;3.58;100.00;101691.38;5068774;28;20063;-61
2023/01/27 11:08:37;;;;;;;4.80;3.47;;;;;;;3.63;100.00;101693.91;5070616;28;20056;-59
2023/01/27 11:14:03;;;;;;;6.93;2.50;;;;;;;3.70;100.00;101696.41;5053600;28;20074;-60
2023/01/27 11:16:34;;;;;;;4.18;2.53;;;;;;;3.75;100.00;101696.34;5064181;28;20132;-60
2023/01/27 11:19:30;;;;;;;7.80;3.33;;;;;;;3.78;100.00;101699.78;5055867;28;20449;-60
2023/01/27 11:21:58;;;;;;;4.57;2.55;;;;;;;3.86;100.00;101696.19;5063432;28;20464;-61
2023/01/27 11:24:46;;;;;;;6.47;2.28;;;;;;;3.88;100.00;101694.44;5053937;28;20515;-62
2023/01/27 11:27:43;;;;;;;6.82;2.67;;;;;;;3.88;100.00;101699.66;5053784;28;20054;-61
2023/01/27 11:30:18;;;;;;;;;;;;;;;3.92;100.00;101698.72;5060958;28;20051;-59
2023/01/27 11:33:09;;;;;;;4.43;2.10;;;;;;;3.91;100.00;101703.06;5065434;28;20019;-60
2023/01/27 11:35:36;;;;;;;4.15;2.05;;;;;;;3.93;100.00;101695.25;5059496;28;20051;-62
2023/01/27 11:38:04;;;;;;;6.60;2.25;;;;;;;3.98;100.00;101693.44;5072874;28;20134;-60
2023/01/27 11:40:43;;;;;;;5.18;2.25;;;;;;;4.03;100.00;101687.25;5070525;28;20141;-61
2023/01/27 11:43:15;;;;;;;6.00;3.05;;;;;;;4.07;100.00;101688.94;5068464;28;20050;-59
2023/01/27 11:45:44;;;;;;;9.02;2.42;;;;;;;4.14;100.00;101694.91;5063350;28;20066;-57
2023/01/27 11:48:14;;;;;;;6.40;2.03;;;;;;;4.18;100.00;101688.75;5071115;28;20058;-61
2023/01/27 11:50:43;;;;;;;6.88;2.30;;;;;;;4.25;100.00;101686.94;5059680;28;20591;-62
2023/01/27 11:53:15;;;;;;;9.07;2.63;;;;;;;4.23;100.00;101688.69;5054530;28;20067;-62
2023/01/27 11:55:47;;;;;;;8.57;2.85;;;;;;;4.23;100.00;101688.69;5056561;28;20055;-60
2023/01/27 11:58:50;;;;;;;8.55;2.53;;;;;;;4.19;100.00;101687.03;5064108;28;20564;-60
2023/01/27 12:01:20;;;;;;;5.60;2.47;;;;;;;4.19;100.00;101684.44;5058608;28;20142;-61
2023/01/27 12:03:53;;;;;;;4.57;2.17;;;;;;;4.17;100.00;101686.19;5062373;28;20409;-58
2023/01/27 12:06:30;;;;;;;5.43;2.38;;;;;;;4.11;100.00;101683.69;5065502;28;20179;-62